Accueil
METAR-TAF:

METAR-TAF

Aéroports :

Aéroport de Paris-Charles-de-Gaulle

Paris-Charles De Gaulle, France

latitude: 49-01N, longitude: 002-32E, altitude: 118 m

Observation

Le bulletin a été fait il y a 20 minutes, à 20:00 UTC
Vent 7 kt de nord
Température 13°C
Humidité 77%
Pression 1026 hPa
Visibilité: 6000 m

METAR: LFPG 192000Z 01007KT 6000 NSC 13/09 Q1026 NOSIG

Heure: 22:20 (20:20 UTC)

Prévision

Le bulletin a été fait il y a 3 heures et 20 minutes, à 17:00 UTC
Prévision valable du 19 à 18 UTC au 20 à 24 UTC
Vent 10 kt de nord/nord-est
Visibilité: 8000 m
Probabilité 40%
du 20 à 02 UTC au 20 à 05 UTC
Visibilité: 4000 m
brume

TAF: LFPG 191700Z 1918/2024 02010KT 8000 NSW NSC TX19/2014Z TN09/2006Z PROB40 2002/2005 4000 BR

Observations et prévisions météorologiques de plus de 4000 aéroports (messages METAR et TAF).

Les stations disponibles sont représentées par des disques jaunes et rouges sur la carte.

Passer la souris dessus pour voir le nom de la station.

Cliquer dessus pour voir les observations et prévisions météorologiques.

Pour changer de carte: cliquez sur les boutons verts avec une croix noire pour zoomer, sur le bouton vert avec un tiret pour effectuer un zoom arrière, ou sur les flèches vertes pour les cartes adjacentes.


METAR-TAF: